createdAt,value
2023-04-09T00:00:16.217Z,8.56
2023-04-09T00:05:09.832Z,8.53
2023-04-09T00:10:02.671Z,8.52
2023-04-09T00:14:55.788Z,8.49
2023-04-09T00:19:49.181Z,8.47
2023-04-09T00:24:41.959Z,8.47
2023-04-09T00:29:35.038Z,8.44
2023-04-09T00:34:27.896Z,8.40
2023-04-09T00:39:20.812Z,8.33
2023-04-09T00:44:13.821Z,8.28
2023-04-09T00:49:08.514Z,8.24
2023-04-09T00:54:01.506Z,8.19
2023-04-09T00:58:55.278Z,8.14
2023-04-09T01:03:48.668Z,8.09
2023-04-09T01:09:06.419Z,7.99
2023-04-09T01:14:33.313Z,7.88
2023-04-09T01:19:51.826Z,7.80
2023-04-09T01:25:06.054Z,7.72
2023-04-09T01:30:08.277Z,7.64
2023-04-09T01:35:04.437Z,7.61
2023-04-09T01:39:58.140Z,7.61
2023-04-09T01:44:52.171Z,7.63
2023-04-09T01:49:46.001Z,7.65
2023-04-09T01:54:38.792Z,7.67
2023-04-09T01:59:31.901Z,7.66
2023-04-09T02:04:37.126Z,7.66
2023-04-09T02:09:32.816Z,7.66
2023-04-09T02:14:27.851Z,7.66
2023-04-09T02:19:20.636Z,7.58
2023-04-09T02:24:13.444Z,7.50
2023-04-09T02:29:06.256Z,7.50
2023-04-09T02:33:59.068Z,7.50
2023-04-09T02:38:52.079Z,7.46
2023-04-09T02:43:45.604Z,7.43
2023-04-09T02:48:38.357Z,7.45
2023-04-09T02:53:31.273Z,7.48
2023-04-09T02:58:24.169Z,7.45
2023-04-09T03:03:17.128Z,7.42
2023-04-09T03:08:10.112Z,7.38
2023-04-09T03:13:02.902Z,7.36
2023-04-09T03:17:55.776Z,7.36
2023-04-09T03:22:48.581Z,7.38
2023-04-09T03:27:48.413Z,7.29
2023-04-09T03:32:47.257Z,7.14
2023-04-09T03:37:41.410Z,6.96
2023-04-09T03:42:39.291Z,6.76
2023-04-09T03:47:36.124Z,6.54
2023-04-09T03:52:29.222Z,6.40
2023-04-09T03:57:28.243Z,6.31
2023-04-09T04:02:21.328Z,6.19
2023-04-09T04:07:22.247Z,6.10
2023-04-09T04:12:20.510Z,6.08
2023-04-09T04:17:45.479Z,6.08
2023-04-09T04:22:45.094Z,6.10
2023-04-09T04:27:38.180Z,6.17
2023-04-09T04:32:32.108Z,6.26
2023-04-09T04:37:28.212Z,6.36
2023-04-09T04:42:24.358Z,6.47
2023-04-09T04:47:17.493Z,6.56
2023-04-09T04:52:10.323Z,6.63
2023-04-09T04:57:04.636Z,6.73
2023-04-09T05:02:00.597Z,6.78
2023-04-09T05:06:54.453Z,6.84
2023-04-09T05:11:47.664Z,6.96
2023-04-09T05:16:44.500Z,7.09
2023-04-09T05:21:37.392Z,7.28
2023-04-09T05:26:31.518Z,7.51
2023-04-09T05:31:24.959Z,7.74
2023-04-09T05:36:36.660Z,8.10
2023-04-09T05:41:29.676Z,8.56
2023-04-09T05:46:45.483Z,9.04
2023-04-09T05:51:39.959Z,9.31
2023-04-09T05:56:33.887Z,9.45
2023-04-09T06:01:27.293Z,9.58
2023-04-09T06:06:20.255Z,9.78
2023-04-09T06:11:13.503Z,10.08
2023-04-09T06:16:07.775Z,10.37
2023-04-09T06:21:08.582Z,10.62
2023-04-09T06:26:02.082Z,10.90
2023-04-09T06:30:55.416Z,11.09
2023-04-09T06:35:49.053Z,11.21
2023-04-09T06:40:42.208Z,11.35
2023-04-09T06:45:35.495Z,11.55
2023-04-09T06:50:28.977Z,11.94
2023-04-09T06:55:21.911Z,12.42
2023-04-09T07:00:15.045Z,12.81
2023-04-09T07:05:08.005Z,13.07
2023-04-09T07:10:01.687Z,13.09
2023-04-09T07:14:54.614Z,13.12
2023-04-09T07:19:47.462Z,13.07
2023-04-09T07:24:40.250Z,13.13
2023-04-09T07:29:33.033Z,13.58
2023-04-09T07:34:26.292Z,14.17
2023-04-09T07:39:21.156Z,15.63
2023-04-09T07:44:15.036Z,16.33
2023-04-09T07:49:07.882Z,17.27
2023-04-09T07:54:00.699Z,17.69
2023-04-09T07:58:53.691Z,19.25
2023-04-09T08:03:46.930Z,20.50
2023-04-09T08:08:39.756Z,19.87
2023-04-09T08:13:32.574Z,18.70
2023-04-09T08:18:25.423Z,17.56
2023-04-09T08:23:18.180Z,16.74
2023-04-09T08:28:10.954Z,16.20
2023-04-09T08:33:03.825Z,15.96
2023-04-09T08:37:57.638Z,16.20
2023-04-09T08:42:56.954Z,16.33
2023-04-09T08:47:52.497Z,16.19
2023-04-09T08:52:48.188Z,16.04
2023-04-09T08:57:41.638Z,15.98
2023-04-09T09:02:34.599Z,16.07
2023-04-09T09:07:30.728Z,16.05
2023-04-09T09:12:33.770Z,16.51
2023-04-09T09:17:26.748Z,17.86
2023-04-09T09:22:19.755Z,18.14
2023-04-09T09:27:12.589Z,18.42
2023-04-09T09:32:14.691Z,18.26
2023-04-09T09:37:28.276Z,18.16
2023-04-09T09:42:21.061Z,18.39
2023-04-09T09:47:14.712Z,18.26
2023-04-09T09:52:11.137Z,20.20
2023-04-09T09:57:07.555Z,19.47
2023-04-09T10:02:07.616Z,18.36
2023-04-09T10:07:04.017Z,18.19
2023-04-09T10:12:01.040Z,20.01
2023-04-09T10:16:54.118Z,22.13
2023-04-09T10:22:06.861Z,22.76
2023-04-09T10:27:12.124Z,21.17
2023-04-09T10:32:09.673Z,22.20
2023-04-09T10:37:02.872Z,21.97
2023-04-09T10:41:57.366Z,21.25
2023-04-09T10:46:51.461Z,20.27
2023-04-09T10:51:52.523Z,19.41
2023-04-09T10:57:15.040Z,18.74
2023-04-09T11:02:31.994Z,17.93
2023-04-09T11:07:26.457Z,17.43
2023-04-09T11:12:19.282Z,17.19
2023-04-09T11:17:12.090Z,17.24
2023-04-09T11:22:07.032Z,17.44
2023-04-09T11:27:02.153Z,17.54
2023-04-09T11:31:55.126Z,17.67
2023-04-09T11:36:50.775Z,17.70
2023-04-09T11:41:44.908Z,18.54
2023-04-09T11:46:39.400Z,19.22
2023-04-09T11:51:32.871Z,19.38
2023-04-09T11:56:25.736Z,18.63
2023-04-09T12:01:19.051Z,17.97
2023-04-09T12:06:12.266Z,17.50
2023-04-09T12:11:16.951Z,17.07
2023-04-09T12:16:10.688Z,16.66
2023-04-09T12:21:03.847Z,16.34
2023-04-09T12:25:56.642Z,16.05
2023-04-09T12:30:49.809Z,15.79
2023-04-09T12:35:42.630Z,15.52
2023-04-09T12:40:37.435Z,15.26
2023-04-09T12:45:31.424Z,15.04
2023-04-09T12:50:24.373Z,14.87
2023-04-09T12:55:18.180Z,14.73
2023-04-09T13:00:11.967Z,14.62
2023-04-09T13:05:05.529Z,14.53
2023-04-09T13:09:58.685Z,14.39
2023-04-09T13:14:53.972Z,14.29
2023-04-09T13:19:46.741Z,14.27
2023-04-09T13:24:39.967Z,14.41
2023-04-09T13:29:32.783Z,14.59
2023-04-09T13:34:26.746Z,14.75
2023-04-09T13:39:19.530Z,14.95
2023-04-09T13:44:12.407Z,15.09
2023-04-09T13:49:05.185Z,15.47
2023-04-09T13:53:58.029Z,15.80
2023-04-09T13:58:51.132Z,15.83
2023-04-09T14:03:44.482Z,16.34
2023-04-09T14:08:38.176Z,16.68
2023-04-09T14:13:32.240Z,16.76
2023-04-09T14:18:25.083Z,16.67
2023-04-09T14:23:17.915Z,16.44
2023-04-09T14:28:10.704Z,16.29
2023-04-09T14:33:03.804Z,16.12
2023-04-09T14:37:56.711Z,15.91
2023-04-09T14:42:50.241Z,15.80
2023-04-09T14:47:43.184Z,15.65
2023-04-09T14:52:36.053Z,15.68
2023-04-09T14:57:28.839Z,15.94
2023-04-09T15:02:21.818Z,15.71
2023-04-09T15:07:14.796Z,15.85
2023-04-09T15:12:09.106Z,16.26
2023-04-09T15:17:01.904Z,16.67
2023-04-09T15:21:54.745Z,16.82
2023-04-09T15:26:47.781Z,17.06
2023-04-09T15:31:41.615Z,17.20
2023-04-09T15:36:35.152Z,16.90
2023-04-09T15:41:27.940Z,16.43
2023-04-09T15:46:21.543Z,16.07
2023-04-09T15:51:14.387Z,15.86
2023-04-09T15:56:08.546Z,15.95
2023-04-09T16:01:07.098Z,15.96
2023-04-09T16:06:01.765Z,15.78
2023-04-09T16:10:55.273Z,15.58
2023-04-09T16:15:49.499Z,15.38
2023-04-09T16:20:42.541Z,15.15
2023-04-09T16:25:36.478Z,14.93
2023-04-09T16:30:31.678Z,14.69
2023-04-09T16:35:25.042Z,14.45
2023-04-09T16:40:22.013Z,14.23
2023-04-09T16:45:14.793Z,14.00
2023-04-09T16:50:10.676Z,13.79
2023-04-09T16:55:04.008Z,13.60
2023-04-09T16:59:56.944Z,13.40
2023-04-09T17:04:50.493Z,13.23
2023-04-09T17:09:43.713Z,13.08
2023-04-09T17:14:38.923Z,12.95
2023-04-09T17:19:31.744Z,12.82
2023-04-09T17:24:24.613Z,12.70
2023-04-09T17:29:18.155Z,12.57
2023-04-09T17:34:11.776Z,12.46
2023-04-09T17:39:04.972Z,12.40
2023-04-09T17:43:58.272Z,12.33
2023-04-09T17:48:53.314Z,12.27
2023-04-09T17:53:47.524Z,12.21
2023-04-09T17:58:40.332Z,12.16
2023-04-09T18:03:33.386Z,12.14
2023-04-09T18:08:26.765Z,12.15
2023-04-09T18:13:19.697Z,12.14
2023-04-09T18:18:13.251Z,12.11
2023-04-09T18:23:06.086Z,12.09
2023-04-09T18:27:58.942Z,12.04
2023-04-09T18:32:52.692Z,12.03
2023-04-09T18:37:46.187Z,11.99
2023-04-09T18:42:39.270Z,11.96
2023-04-09T18:47:32.153Z,11.95
2023-04-09T18:52:24.933Z,11.92
2023-04-09T18:57:17.742Z,11.89
2023-04-09T19:02:10.924Z,11.86
2023-04-09T19:07:03.891Z,11.82
2023-04-09T19:11:57.871Z,11.77
2023-04-09T19:16:51.215Z,11.73
2023-04-09T19:21:44.074Z,11.69
2023-04-09T19:26:36.901Z,11.64
2023-04-09T19:31:30.467Z,11.56
2023-04-09T19:36:23.858Z,11.50
2023-04-09T19:41:16.826Z,11.45
2023-04-09T19:46:09.658Z,11.36
2023-04-09T19:51:03.200Z,11.28
2023-04-09T19:55:56.123Z,11.20
2023-04-09T20:00:48.963Z,11.13
2023-04-09T20:05:41.813Z,11.07
2023-04-09T20:10:35.524Z,10.99
2023-04-09T20:15:28.409Z,10.91
2023-04-09T20:20:21.247Z,10.85
2023-04-09T20:25:15.053Z,10.78
2023-04-09T20:30:09.071Z,10.73
2023-04-09T20:35:02.030Z,10.68
2023-04-09T20:39:54.893Z,10.63
2023-04-09T20:44:48.372Z,10.55
2023-04-09T20:49:42.585Z,10.46
2023-04-09T20:54:35.438Z,10.37
2023-04-09T20:59:29.060Z,10.24
2023-04-09T21:04:22.308Z,10.14
2023-04-09T21:09:15.484Z,10.05
2023-04-09T21:15:09.528Z,9.97
2023-04-09T21:20:04.827Z,9.86
2023-04-09T21:25:38.338Z,9.73
2023-04-09T21:30:35.509Z,9.59
2023-04-09T21:35:28.765Z,9.45
2023-04-09T21:40:21.713Z,9.33
2023-04-09T21:45:14.532Z,9.18
2023-04-09T21:50:08.608Z,9.03
2023-04-09T21:55:01.458Z,8.88
2023-04-09T21:59:54.258Z,8.74
2023-04-09T22:04:47.117Z,8.58
2023-04-09T22:09:40.083Z,8.46
2023-04-09T22:14:33.570Z,8.33
2023-04-09T22:19:27.064Z,8.22
2023-04-09T22:24:46.509Z,8.13
2023-04-09T22:29:41.671Z,8.01
2023-04-09T22:34:34.837Z,7.91
2023-04-09T22:39:27.725Z,7.86
2023-04-09T22:44:20.544Z,7.81
2023-04-09T22:49:13.571Z,7.73
2023-04-09T22:54:06.421Z,7.58
2023-04-09T22:58:59.227Z,7.48
2023-04-09T23:03:55.147Z,7.39
2023-04-09T23:08:49.510Z,7.29
2023-04-09T23:13:42.483Z,7.21
2023-04-09T23:18:39.004Z,7.11
2023-04-09T23:23:31.798Z,7.05
2023-04-09T23:28:27.065Z,6.97
2023-04-09T23:33:21.051Z,6.88
2023-04-09T23:38:15.609Z,6.77
2023-04-09T23:43:08.964Z,6.67
2023-04-09T23:48:02.599Z,6.60
2023-04-09T23:52:59.859Z,6.57
2023-04-09T23:57:53.028Z,6.52
